Osseo, Minnesota
Current Conditions -  °F | °C
As of 8:53 AM on Monday 24 Nov 2014 (Local Time) from KMIC Reporting Station
Overcast Overcast  
Wind Chill: 11°   Ceiling: 1500
Heat Index: 24°   Visibility: 10mi
Dew Point: 18°   Wind: 17mph
Humidity: 77%   Direction: 300°WNW
Pressure: 29.4"   Gusts: NA
Location:  45.12°N, 93.4°W
Report Text: KMIC 241453Z 30015KT 10SM OVC015 M04/M08 A2940 RMK AO2 SLP965 T10441078 53017
Loading
Personal Weather Stations






























Interactive Weather Map New forecast layout! Learn more

10-Day Weather Forecast

Advertisements
Track Severe Weather on mobile